Terminal Aerodrome Forecast
Issued by NWS Binghamton, NY

Home | Current Version | Previous Version | Text Only | Print | Product List | Glossary On
Versions: 1 2 3 4 5 6 7 8 9 10 11 12 13 14 15 16 17 18 19
364
FTUS41 KBGM 181144
TAFAVP
TAF
KAVP 181144Z 1812/1912 VRB03KT 6SM -RA BR BKN015 OVC025
     FM181500 21008KT P6SM BKN025 OVC060
      TEMPO 1817/1820 5SM -SHRA
     FM182000 22006KT P6SM SCT040 BKN100
     FM190500 VRB03KT 3SM BR BKN250=

USA.gov is the U.S. government's official web portal to all federal, state and local government web resources and services.